Time;durP1;ratioP1;P1;durP2;ratioP2;P2;SDS_P1;SDS_P2;PMS_P1;PMS_P2;Temp;Humidity;BMP_temperature;BMP_pressure;BME280_temperature;BME280_humidity;BME280_pressure;Samples;Min_cycle;Max_cycle;Signal;HPM_P1;HPM_P2
2023/09/30 00:01:41;;;;;;;6.90;1.20;;;;;;;22.86;61.25;101650.41;4982191;28;96813;-74
2023/09/30 00:04:09;;;;;;;8.30;1.90;;;;;;;22.31;60.85;101656.19;4975144;28;96929;-74
2023/09/30 00:06:36;;;;;;;6.22;1.63;;;;;;;22.06;60.92;101657.88;4978030;28;100099;-74
2023/09/30 00:09:03;;;;;;;8.30;2.10;;;;;;;21.85;60.88;101670.97;4975015;28;97601;-75
2023/09/30 00:11:29;;;;;;;9.45;2.13;;;;;;;22.08;60.36;101673.91;4980815;28;96820;-74
2023/09/30 00:13:56;;;;;;;6.07;1.70;;;;;;;21.67;59.90;101679.38;4981730;28;98173;-76
2023/09/30 00:16:22;;;;;;;10.23;1.75;;;;;;;21.73;60.56;101687.03;4976679;28;98871;-74
2023/09/30 00:18:48;;;;;;;6.72;1.90;;;;;;;21.74;59.74;101689.63;4985491;28;97299;-78
2023/09/30 00:21:16;;;;;;;6.95;1.83;;;;;;;21.84;58.65;101697.97;4990016;28;96709;-77
2023/09/30 00:23:42;;;;;;;8.38;2.00;;;;;;;21.55;59.06;101696.34;4987382;28;97046;-77
2023/09/30 00:26:09;;;;;;;10.07;2.15;;;;;;;21.44;59.54;101697.06;4979653;28;98971;-78
2023/09/30 00:28:35;;;;;;;10.63;2.17;;;;;;;21.31;59.66;101698.84;4986632;28;99077;-78
2023/09/30 00:31:01;;;;;;;8.13;1.70;;;;;;;21.40;59.73;101708.97;4983073;28;96964;-78
2023/09/30 00:33:28;;;;;;;10.57;1.92;;;;;;;21.17;60.27;101710.47;4978888;28;97421;-77
2023/09/30 00:35:54;;;;;;;8.35;1.92;;;;;;;21.01;60.68;101707.00;4985544;28;101620;-77
2023/09/30 00:38:23;;;;;;;8.25;1.90;;;;;;;21.14;61.04;101713.31;4980669;28;99161;-77
2023/09/30 00:40:50;;;;;;;8.80;2.30;;;;;;;21.20;61.08;101720.19;4992998;28;96860;-77
2023/09/30 00:43:20;;;;;;;9.00;1.98;;;;;;;21.14;61.40;101715.13;4979791;28;96955;-77
2023/09/30 00:45:47;;;;;;;9.32;1.73;;;;;;;21.43;60.54;101725.78;4981597;28;98997;-73
2023/09/30 00:48:14;;;;;;;6.22;2.10;;;;;;;21.56;60.06;101724.97;4988823;28;98899;-73
2023/09/30 00:50:40;;;;;;;9.63;2.08;;;;;;;21.05;61.95;101730.03;4981703;28;96806;-73
2023/09/30 00:53:07;;;;;;;11.43;2.22;;;;;;;20.95;62.03;101728.88;4977830;28;96750;-74
2023/09/30 00:55:35;;;;;;;8.10;2.05;;;;;;;20.99;61.80;101727.75;4986461;28;98905;-74
2023/09/30 00:58:03;;;;;;;8.48;2.20;;;;;;;20.81;62.31;101731.56;4981997;28;98886;-75
2023/09/30 01:00:29;;;;;;;5.93;1.77;;;;;;;20.93;62.19;101728.13;4979574;28;96983;-74
2023/09/30 01:02:56;;;;;;;13.65;2.05;;;;;;;20.87;61.90;101731.22;4984894;28;97179;-76
2023/09/30 01:05:23;;;;;;;7.03;1.73;;;;;;;20.82;62.25;101734.16;4978399;28;97654;-76
2023/09/30 01:07:49;;;;;;;17.00;2.88;;;;;;;21.08;61.46;101735.22;4980400;28;99415;-76
2023/09/30 01:10:16;;;;;;;5.40;1.55;;;;;;;21.05;60.68;101744.34;4978768;28;96749;-76
2023/09/30 01:12:43;;;;;;;6.68;2.40;;;;;;;20.64;61.64;101752.31;4979259;28;96868;-77
2023/09/30 01:15:10;;;;;;;9.60;2.28;;;;;;;20.47;62.28;101754.31;4984387;28;98473;-77
2023/09/30 01:17:37;;;;;;;8.25;2.15;;;;;;;20.15;63.24;101757.03;4979249;28;99355;-77
2023/09/30 01:20:06;;;;;;;9.57;2.13;;;;;;;20.26;62.80;101759.97;4977966;28;99124;-76
2023/09/30 01:22:33;;;;;;;14.52;2.28;;;;;;;20.30;62.14;101766.88;4981094;28;96913;-76
2023/09/30 01:25:00;;;;;;;7.45;2.05;;;;;;;20.46;61.70;101774.03;4979787;28;99643;-75
2023/09/30 01:27:26;;;;;;;9.60;2.38;;;;;;;20.41;61.08;101779.69;4982100;28;99001;-76
2023/09/30 01:29:53;;;;;;;9.23;2.47;;;;;;;20.50;61.33;101778.25;4982176;28;97633;-76
2023/09/30 01:32:19;;;;;;;11.63;2.30;;;;;;;20.41;60.85;101786.88;4982670;28;96928;-76
2023/09/30 01:34:45;;;;;;;9.70;2.35;;;;;;;20.46;60.83;101795.53;4983147;28;99124;-75
2023/09/30 01:37:13;;;;;;;12.85;2.60;;;;;;;20.34;61.27;101790.91;4979114;28;101765;-76
2023/09/30 01:39:41;;;;;;;11.07;2.50;;;;;;;20.23;61.57;101795.03;4981687;28;96807;-76
2023/09/30 01:42:07;;;;;;;16.70;2.65;;;;;;;20.25;61.47;101792.25;4988615;28;97067;-76
2023/09/30 01:44:33;;;;;;;10.52;2.70;;;;;;;20.19;61.56;101798.00;4977244;28;99198;-75
2023/09/30 01:47:00;;;;;;;18.33;3.15;;;;;;;20.22;61.37;101804.03;4980339;28;98987;-76
2023/09/30 01:49:26;;;;;;;15.68;2.45;;;;;;;20.02;62.22;101804.34;4982687;28;96884;-76
2023/09/30 01:51:52;;;;;;;17.23;2.85;;;;;;;20.25;61.53;101809.22;4979639;28;96855;-76
2023/09/30 01:54:19;;;;;;;9.77;2.47;;;;;;;20.33;61.54;101807.94;4975477;28;99309;-75
2023/09/30 01:56:47;;;;;;;11.65;2.70;;;;;;;20.26;61.50;101810.97;4982162;28;98007;-77
2023/09/30 01:59:13;;;;;;;17.92;3.00;;;;;;;20.19;62.11;101814.09;4979685;28;96796;-76
2023/09/30 02:01:39;;;;;;;11.55;2.75;;;;;;;20.28;61.52;101814.41;4985910;28;97295;-77
2023/09/30 02:04:06;;;;;;;12.60;2.60;;;;;;;20.07;62.04;101821.06;4982432;28;99401;-76
2023/09/30 02:06:33;;;;;;;8.90;2.42;;;;;;;19.93;62.78;101823.66;4985207;28;98867;-78
2023/09/30 02:08:59;;;;;;;15.00;3.03;;;;;;;20.19;62.14;101823.00;4976957;28;97217;-79
2023/09/30 02:11:26;;;;;;;17.38;2.97;;;;;;;20.13;61.96;101830.56;4981600;28;97131;-78
2023/09/30 02:13:54;;;;;;;14.90;2.88;;;;;;;19.96;62.55;101823.47;4987062;28;99004;-77
2023/09/30 02:16:20;;;;;;;9.10;2.40;;;;;;;19.98;62.67;101831.44;4979854;28;99094;-76
2023/09/30 02:18:47;;;;;;;15.30;2.92;;;;;;;19.86;63.13;101839.25;4985564;28;97163;-76
2023/09/30 02:21:13;;;;;;;12.27;3.10;;;;;;;19.69;63.41;101835.78;4977649;28;96927;-77
2023/09/30 02:23:40;;;;;;;12.48;2.72;;;;;;;19.58;64.54;101827.47;4984457;28;99318;-76
2023/09/30 02:26:06;;;;;;;15.38;2.80;;;;;;;19.60;64.51;101825.56;4978418;28;98838;-77
2023/09/30 02:28:34;;;;;;;11.27;2.83;;;;;;;19.56;65.05;101832.06;4979779;28;96782;-78
2023/09/30 02:31:01;;;;;;;16.73;2.75;;;;;;;19.66;65.04;101834.13;4980533;28;97061;-76
2023/09/30 02:33:28;;;;;;;14.98;2.90;;;;;;;19.65;65.01;101831.53;4976635;28;98932;-77
2023/09/30 02:35:54;;;;;;;12.77;2.97;;;;;;;19.71;64.82;101831.19;4977631;28;99186;-75
2023/09/30 02:38:22;;;;;;;15.68;2.88;;;;;;;19.62;65.66;101847.81;4978004;28;96692;-76
2023/09/30 02:40:49;;;;;;;11.23;2.88;;;;;;;19.49;66.23;101845.78;4975740;28;96954;-77
2023/09/30 02:43:16;;;;;;;14.15;3.42;;;;;;;19.50;66.08;101862.75;4981551;28;98915;-77
2023/09/30 02:45:43;;;;;;;15.52;2.97;;;;;;;19.45;66.95;101860.28;4986834;28;98973;-75
2023/09/30 02:48:11;;;;;;;21.90;3.63;;;;;;;19.54;66.73;101867.00;4982189;28;96718;-75
2023/09/30 02:50:37;;;;;;;6.88;2.38;;;;;;;19.75;65.63;101875.66;4981813;28;97083;-76
2023/09/30 02:53:04;;;;;;;18.10;3.00;;;;;;;19.57;66.53;101880.22;4978526;28;99002;-76
2023/09/30 02:55:30;;;;;;;20.98;3.45;;;;;;;19.38;67.65;101876.78;4979452;28;97506;-77
2023/09/30 02:57:57;;;;;;;20.08;3.47;;;;;;;19.33;68.40;101874.34;4985044;28;97112;-77
2023/09/30 03:00:25;;;;;;;18.67;3.58;;;;;;;19.31;68.07;101876.25;4980704;28;96976;-77
2023/09/30 03:02:53;;;;;;;15.93;3.40;;;;;;;19.17;68.97;101880.59;4983651;28;100642;-76
2023/09/30 03:05:22;;;;;;;17.42;3.45;;;;;;;19.22;68.86;101871.41;4981016;28;97688;-78
2023/09/30 03:07:50;;;;;;;17.67;3.40;;;;;;;19.19;69.09;101873.38;4977815;28;96836;-77
2023/09/30 03:10:23;;;;;;;17.20;3.97;;;;;;;19.17;69.29;101884.16;4982070;28;96748;-77
2023/09/30 03:12:50;;;;;;;12.82;2.97;;;;;;;18.70;71.27;101882.19;4983262;28;97715;-76
2023/09/30 03:15:32;;;;;;;15.18;3.13;;;;;;;18.91;70.60;101890.03;4978452;28;98136;-75
2023/09/30 03:18:00;;;;;;;19.00;3.95;;;;;;;18.91;70.79;101882.84;4977889;28;96873;-78
2023/09/30 03:20:28;;;;;;;13.68;3.13;;;;;;;19.19;69.51;101889.44;4981271;28;97778;-76
2023/09/30 03:23:01;;;;;;;17.95;3.65;;;;;;;19.19;69.61;101894.81;4985413;28;99244;-77
2023/09/30 03:25:32;;;;;;;11.27;2.83;;;;;;;19.05;69.93;101899.06;4980598;28;99648;-77
2023/09/30 03:28:02;;;;;;;14.05;3.17;;;;;;;19.13;69.47;101903.16;4976301;28;99355;-76
2023/09/30 03:30:29;;;;;;;12.23;3.08;;;;;;;19.13;69.27;101901.34;4980667;28;97188;-76
2023/09/30 03:32:55;;;;;;;12.82;2.92;;;;;;;18.99;69.64;101903.88;4980019;28;98938;-76
2023/09/30 03:35:23;;;;;;;12.68;3.33;;;;;;;19.02;69.82;101898.38;4980970;28;99380;-76
2023/09/30 03:37:51;;;;;;;19.33;3.97;;;;;;;19.14;69.12;101903.09;4981263;28;96804;-76
2023/09/30 03:40:19;;;;;;;16.85;3.47;;;;;;;18.79;70.89;101901.38;4981088;28;97190;-76
2023/09/30 03:42:58;;;;;;;16.90;4.05;;;;;;;18.74;71.18;101906.09;4985581;28;99232;-76
2023/09/30 03:45:25;;;;;;;11.23;3.10;;;;;;;18.93;70.56;101906.88;4978305;28;97700;-77
2023/09/30 03:47:52;;;;;;;15.50;4.72;;;;;;;18.68;71.04;101910.84;4979907;28;96605;-77
2023/09/30 03:50:18;;;;;;;12.15;2.80;;;;;;;18.87;70.37;101902.72;4985439;28;96837;-79
2023/09/30 03:52:45;;;;;;;21.05;3.10;;;;;;;18.67;71.11;101900.19;4979785;28;99097;-72
2023/09/30 03:55:15;;;;;;;14.80;3.10;;;;;;;18.62;71.84;101911.16;4978942;28;98807;-73
2023/09/30 03:57:41;;;;;;;9.73;2.90;;;;;;;18.67;71.33;101917.13;4987024;28;97953;-72
2023/09/30 04:00:15;;;;;;;18.27;4.07;;;;;;;18.50;72.18;101913.53;4983899;28;96861;-72
2023/09/30 04:02:43;;;;;;;14.43;3.55;;;;;;;18.64;71.62;101919.94;4984560;28;99400;-71
2023/09/30 04:05:11;;;;;;;23.45;4.38;;;;;;;18.47;72.29;101922.59;4985637;28;98781;-73
2023/09/30 04:07:42;;;;;;;15.10;3.10;;;;;;;18.36;72.44;101922.25;4978840;28;96743;-75
2023/09/30 04:10:09;;;;;;;15.98;3.30;;;;;;;18.43;72.44;101920.13;4983393;28;97044;-74
2023/09/30 04:12:40;;;;;;;16.38;3.75;;;;;;;18.47;72.39;101922.59;4980681;28;100373;-75
2023/09/30 04:15:11;;;;;;;20.33;3.53;;;;;;;18.47;72.43;101933.28;4984671;28;100728;-74
2023/09/30 04:17:42;;;;;;;22.55;4.30;;;;;;;18.42;72.70;101926.44;4983490;28;96767;-75
2023/09/30 04:20:16;;;;;;;21.40;3.85;;;;;;;18.56;71.97;101930.19;4981750;28;96850;-77
2023/09/30 04:22:48;;;;;;;15.18;3.75;;;;;;;18.38;72.92;101933.72;4983817;28;99114;-74
2023/09/30 04:25:16;;;;;;;23.92;3.65;;;;;;;18.30;73.05;101936.81;4984982;28;101022;-74
2023/09/30 04:27:45;;;;;;;16.63;3.63;;;;;;;18.21;73.34;101942.59;4978813;28;96946;-74
2023/09/30 04:30:19;;;;;;;15.55;3.45;;;;;;;18.17;73.57;101946.38;4984177;28;97840;-74
2023/09/30 04:32:53;;;;;;;16.15;3.55;;;;;;;17.93;74.68;101950.19;4979493;28;98428;-74
2023/09/30 04:35:20;;;;;;;14.88;3.08;;;;;;;17.65;76.47;101947.94;4978159;28;99824;-73
2023/09/30 04:37:49;;;;;;;19.48;3.50;;;;;;;17.91;75.39;101944.94;4985750;28;97283;-73
2023/09/30 04:40:19;;;;;;;11.85;2.97;;;;;;;18.07;74.21;101944.19;4982700;28;96957;-74
2023/09/30 04:42:47;;;;;;;18.23;3.55;;;;;;;18.21;73.66;101947.06;4983196;28;98568;-74
2023/09/30 04:45:16;;;;;;;15.77;3.20;;;;;;;18.20;73.56;101946.19;4978136;28;96803;-76
2023/09/30 04:47:50;;;;;;;15.68;3.63;;;;;;;18.20;73.75;101945.34;4988322;28;96821;-75
2023/09/30 04:50:21;;;;;;;17.20;3.90;;;;;;;17.93;74.81;101936.81;4982372;28;98596;-75
2023/09/30 04:52:48;;;;;;;17.48;3.45;;;;;;;18.04;74.48;101930.97;4981151;28;99279;-73
2023/09/30 04:55:16;;;;;;;21.30;3.78;;;;;;;18.04;74.33;101936.31;4983402;28;98705;-74
2023/09/30 04:57:44;;;;;;;18.63;3.60;;;;;;;17.92;74.79;101941.28;4980761;28;97271;-74
2023/09/30 05:00:18;;;;;;;17.95;3.35;;;;;;;17.77;75.36;101936.69;4980795;28;98476;-74
2023/09/30 05:02:51;;;;;;;15.35;3.78;;;;;;;17.92;74.81;101954.66;4976966;28;97105;-76
2023/09/30 05:05:25;;;;;;;16.42;3.17;;;;;;;18.03;74.23;101954.19;4984636;28;100200;-73
2023/09/30 05:07:52;;;;;;;14.70;3.42;;;;;;;17.91;74.76;101954.75;4979357;28;98081;-73
2023/09/30 05:10:19;;;;;;;20.45;4.22;;;;;;;18.02;74.15;101959.59;4982920;28;96832;-73
2023/09/30 05:12:46;;;;;;;14.93;3.13;;;;;;;18.12;73.69;101963.56;4981236;28;98915;-74
2023/09/30 05:15:15;;;;;;;9.77;3.08;;;;;;;18.11;73.50;101969.88;4980398;28;99227;-73
2023/09/30 05:17:41;;;;;;;15.45;4.20;;;;;;;18.03;73.82;101974.72;4984355;28;96754;-73
2023/09/30 05:20:08;;;;;;;17.23;3.67;;;;;;;18.02;73.95;101970.28;4986863;28;97365;-74
2023/09/30 05:22:35;;;;;;;22.33;3.40;;;;;;;17.97;74.27;101966.97;4978795;28;102255;-73
2023/09/30 05:25:01;;;;;;;17.60;3.40;;;;;;;17.91;74.46;101963.66;4978340;28;98805;-74
2023/09/30 05:27:28;;;;;;;19.42;4.20;;;;;;;17.94;74.43;101970.66;4979001;28;97326;-74
2023/09/30 05:29:55;;;;;;;16.27;3.35;;;;;;;18.08;73.84;101975.34;4982736;28;96756;-75
2023/09/30 05:32:22;;;;;;;18.25;4.22;;;;;;;18.13;73.09;101976.00;4984441;28;98914;-73
2023/09/30 05:34:49;;;;;;;16.58;3.75;;;;;;;18.30;72.68;101982.28;4982157;28;98738;-74
2023/09/30 05:37:15;;;;;;;18.85;3.85;;;;;;;18.21;73.14;101987.19;4978898;28;96873;-75
2023/09/30 05:39:44;;;;;;;22.67;4.15;;;;;;;18.29;72.61;102001.09;4981521;28;96888;-75
2023/09/30 05:42:11;;;;;;;16.73;3.95;;;;;;;18.41;72.17;102000.50;4981123;28;98984;-76
2023/09/30 05:44:37;;;;;;;19.15;3.58;;;;;;;18.46;71.66;102003.81;4977797;28;97515;-75
2023/09/30 05:47:05;;;;;;;15.20;3.28;;;;;;;18.01;74.07;101995.28;4985091;28;97056;-75
2023/09/30 05:49:32;;;;;;;17.90;3.88;;;;;;;18.24;72.97;102000.44;4979236;28;97492;-74
2023/09/30 05:51:59;;;;;;;14.15;3.45;;;;;;;18.33;72.33;102005.34;4984456;28;99067;-74
2023/09/30 05:54:25;;;;;;;17.58;3.25;;;;;;;18.50;72.22;102013.44;4979817;28;99206;-73
2023/09/30 05:56:52;;;;;;;14.60;3.17;;;;;;;18.52;71.81;102022.25;4986692;28;96848;-74
2023/09/30 05:59:18;;;;;;;12.93;3.67;;;;;;;18.49;71.59;102027.75;4979339;28;97338;-74
2023/09/30 06:01:46;;;;;;;16.83;3.75;;;;;;;18.52;71.39;102024.91;4982663;28;99980;-73
2023/09/30 06:04:12;;;;;;;16.38;3.60;;;;;;;18.90;70.11;102016.88;4978456;28;101895;-73
2023/09/30 06:06:42;;;;;;;14.32;3.47;;;;;;;18.96;69.43;102019.22;4985662;28;96748;-74
2023/09/30 06:09:09;;;;;;;22.58;3.90;;;;;;;19.08;68.29;102024.84;4980528;28;96833;-73
2023/09/30 06:11:35;;;;;;;22.23;3.95;;;;;;;19.33;67.13;102027.13;4976669;28;98774;-73
2023/09/30 06:14:06;;;;;;;14.13;3.95;;;;;;;19.44;66.82;102032.78;4980458;28;99781;-73
2023/09/30 06:16:32;;;;;;;12.48;3.60;;;;;;;19.35;67.05;102041.31;4982264;28;98933;-73
2023/09/30 06:18:58;;;;;;;22.25;5.25;;;;;;;19.72;65.86;102034.03;4975788;28;96859;-73
2023/09/30 06:21:28;;;;;;;14.93;3.30;;;;;;;19.46;66.10;102033.59;4985484;28;98916;-74
2023/09/30 06:23:56;;;;;;;16.80;3.15;;;;;;;19.41;66.22;102030.28;4976213;28;100242;-74
2023/09/30 06:26:24;;;;;;;14.48;3.28;;;;;;;19.31;66.75;102029.00;4984456;28;97296;-74
2023/09/30 06:28:53;;;;;;;22.77;3.97;;;;;;;19.34;66.97;102039.56;4980091;28;98003;-73
2023/09/30 06:31:20;;;;;;;24.45;3.88;;;;;;;19.40;66.40;102043.75;4977216;28;99135;-74
2023/09/30 06:33:46;;;;;;;14.48;3.70;;;;;;;19.07;67.53;102051.69;4980366;28;100289;-73
2023/09/30 06:36:14;;;;;;;14.88;3.30;;;;;;;19.07;67.45;102062.41;4979840;28;97253;-73
2023/09/30 06:38:41;;;;;;;17.40;3.97;;;;;;;19.24;67.21;102062.41;4980851;28;97082;-73
2023/09/30 06:41:09;;;;;;;13.90;3.00;;;;;;;19.05;67.12;102058.94;4982670;28;99106;-74
2023/09/30 06:43:36;;;;;;;15.20;3.55;;;;;;;19.08;67.26;102067.69;4985802;28;99077;-73
2023/09/30 06:46:07;;;;;;;21.55;3.40;;;;;;;19.19;67.35;102066.28;4978140;28;96722;-74
2023/09/30 06:48:34;;;;;;;18.77;3.90;;;;;;;19.25;66.81;102074.00;4981743;28;96815;-73
2023/09/30 06:51:00;;;;;;;18.60;3.78;;;;;;;19.19;66.87;102061.78;4984573;28;97925;-73
2023/09/30 06:53:26;;;;;;;11.80;3.13;;;;;;;19.45;65.57;102068.50;4986735;28;99036;-74
2023/09/30 06:55:53;;;;;;;13.90;3.53;;;;;;;19.28;66.11;102076.53;4975920;28;97273;-75
2023/09/30 06:58:21;;;;;;;19.52;3.72;;;;;;;19.37;65.97;102076.94;4975798;28;96802;-75
2023/09/30 07:00:51;;;;;;;16.75;3.85;;;;;;;19.14;66.54;102077.25;4981386;28;99059;-74
2023/09/30 07:03:19;;;;;;;18.92;4.10;;;;;;;19.17;66.24;102082.44;4977169;28;98100;-73
2023/09/30 07:05:49;;;;;;;17.10;3.78;;;;;;;19.22;66.09;102083.09;4977913;28;98985;-74
2023/09/30 07:08:15;;;;;;;11.63;3.08;;;;;;;19.48;64.95;102085.34;4982407;28;96946;-74
2023/09/30 07:10:42;;;;;;;14.95;3.28;;;;;;;19.74;64.16;102099.19;4982692;28;101814;-74
2023/09/30 07:13:09;;;;;;;19.75;4.32;;;;;;;19.83;63.81;102093.34;4980240;28;99058;-73
2023/09/30 07:15:36;;;;;;;18.00;3.67;;;;;;;19.71;64.35;102102.03;4982627;28;96839;-73
2023/09/30 07:18:03;;;;;;;17.80;3.67;;;;;;;19.55;64.63;102101.97;4978823;28;97235;-74
2023/09/30 07:20:32;;;;;;;17.50;3.55;;;;;;;19.44;64.60;102105.16;4984360;28;98826;-74
2023/09/30 07:22:59;;;;;;;17.00;3.47;;;;;;;19.88;63.59;102104.72;4979876;28;98204;-73
2023/09/30 07:25:25;;;;;;;14.88;2.75;;;;;;;19.70;63.91;102111.88;4988048;28;96620;-73
2023/09/30 07:27:52;;;;;;;14.63;3.58;;;;;;;19.97;62.93;102114.94;4973111;28;96978;-73
2023/09/30 07:30:18;;;;;;;17.33;3.55;;;;;;;19.89;62.92;102119.81;4989861;28;99369;-73
2023/09/30 07:32:46;;;;;;;11.30;3.30;;;;;;;19.86;63.20;102117.31;4980584;28;98834;-74
2023/09/30 07:35:15;;;;;;;13.70;3.47;;;;;;;19.62;64.08;102110.56;4991147;28;96912;-74
2023/09/30 07:37:41;;;;;;;14.68;3.38;;;;;;;19.68;64.44;102123.66;4980892;28;96833;-74
2023/09/30 07:40:10;;;;;;;12.80;3.20;;;;;;;19.69;64.02;102112.81;4980223;28;99034;-73
2023/09/30 07:42:36;;;;;;;16.73;3.40;;;;;;;19.77;64.15;102120.47;4984852;28;99061;-73
2023/09/30 07:45:04;;;;;;;17.58;3.63;;;;;;;19.80;63.86;102123.88;4980843;28;96913;-75
2023/09/30 07:47:33;;;;;;;17.60;4.22;;;;;;;19.75;63.90;102119.72;4986459;28;96791;-75
2023/09/30 07:50:02;;;;;;;24.38;3.65;;;;;;;19.92;63.05;102119.69;4980752;28;99202;-74
2023/09/30 07:52:28;;;;;;;15.40;3.80;;;;;;;20.16;62.27;102121.06;4978362;28;99127;-74
2023/09/30 07:54:55;;;;;;;18.85;4.22;;;;;;;20.15;62.31;102130.03;4987118;28;97921;-73
2023/09/30 07:57:21;;;;;;;17.95;3.75;;;;;;;20.13;62.45;102136.47;4981765;28;96754;-73
2023/09/30 07:59:48;;;;;;;14.30;3.90;;;;;;;20.29;61.73;102142.72;4984248;28;98949;-74
2023/09/30 08:02:15;;;;;;;21.85;3.70;;;;;;;20.41;61.22;102142.13;4984062;28;98923;-73
2023/09/30 08:04:41;;;;;;;16.33;4.72;;;;;;;20.53;60.83;102140.56;4982781;28;96785;-74
2023/09/30 08:07:09;;;;;;;15.77;3.22;;;;;;;20.29;61.02;102148.09;4985443;28;96993;-74
2023/09/30 08:09:37;;;;;;;15.50;4.00;;;;;;;20.13;62.58;102152.56;4983120;28;99139;-74
2023/09/30 08:12:06;;;;;;;18.45;3.63;;;;;;;20.35;61.75;102146.94;4985195;28;98711;-74
2023/09/30 08:14:32;;;;;;;15.75;3.03;;;;;;;20.27;61.24;102148.19;4982153;28;96730;-74
2023/09/30 08:16:59;;;;;;;17.42;3.30;;;;;;;20.43;61.04;102147.38;4987591;28;96851;-74
2023/09/30 08:19:25;;;;;;;15.07;3.38;;;;;;;20.46;60.58;102152.59;4980186;28;98846;-73
2023/09/30 08:21:52;;;;;;;18.63;3.67;;;;;;;20.43;61.19;102160.81;4986696;28;99166;-73
2023/09/30 08:24:19;;;;;;;14.40;3.28;;;;;;;20.39;60.65;102156.56;4985461;28;98715;-74
2023/09/30 08:26:45;;;;;;;13.07;3.15;;;;;;;21.02;59.00;102163.72;4983414;28;96887;-73
2023/09/30 08:29:12;;;;;;;17.60;3.15;;;;;;;21.35;57.94;102163.63;4986548;28;98885;-73
2023/09/30 08:31:38;;;;;;;16.15;3.38;;;;;;;21.62;56.48;102165.66;4978236;28;100182;-73
2023/09/30 08:34:05;;;;;;;15.20;4.05;;;;;;;21.63;55.98;102162.03;4994114;28;97131;-75
2023/09/30 08:36:32;;;;;;;16.05;3.80;;;;;;;21.59;56.21;102163.16;4990988;28;96987;-74
2023/09/30 08:38:59;;;;;;;17.98;4.30;;;;;;;21.59;56.03;102165.84;4988646;28;100976;-75
2023/09/30 08:41:32;;;;;;;20.77;3.55;;;;;;;21.31;57.05;102161.22;4987570;28;97124;-75
2023/09/30 08:44:01;;;;;;;17.83;3.13;;;;;;;21.67;56.02;102152.78;4993164;28;97172;-74
2023/09/30 08:46:30;;;;;;;18.75;3.60;;;;;;;21.72;55.56;102162.34;4994598;28;96769;-72
2023/09/30 08:48:58;;;;;;;14.93;3.10;;;;;;;21.72;55.47;102158.78;4985991;28;98893;-73
2023/09/30 08:51:25;;;;;;;16.02;3.17;;;;;;;21.84;55.13;102164.31;4988564;28;98736;-73
2023/09/30 08:53:53;;;;;;;14.32;3.22;;;;;;;21.82;55.00;102160.81;4983282;28;96811;-73
2023/09/30 08:56:21;;;;;;;16.70;3.53;;;;;;;20.95;56.91;102165.03;4992564;28;97204;-73
2023/09/30 08:58:49;;;;;;;15.80;2.65;;;;;;;21.00;57.34;102162.94;4979878;28;99407;-72
2023/09/30 09:01:16;;;;;;;14.13;3.20;;;;;;;21.01;57.58;102167.34;4989938;28;98926;-72
2023/09/30 09:03:42;;;;;;;11.40;2.78;;;;;;;21.13;57.76;102163.13;4981178;28;97253;-72
2023/09/30 09:06:09;;;;;;;15.05;2.85;;;;;;;21.36;56.78;102161.81;4983141;28;96942;-74
2023/09/30 09:08:35;;;;;;;15.90;2.97;;;;;;;21.49;56.06;102149.38;4985973;28;98946;-74
2023/09/30 09:11:05;;;;;;;14.60;2.83;;;;;;;21.69;55.47;102157.13;4981418;28;98783;-74
2023/09/30 09:13:49;;;;;;;17.77;3.47;;;;;;;21.76;54.95;102153.13;4977988;28;96870;-73
2023/09/30 09:16:18;;;;;;;20.58;3.00;;;;;;;22.14;54.30;102149.94;4984957;28;96734;-74
2023/09/30 09:18:46;;;;;;;20.20;3.50;;;;;;;21.82;54.81;102150.06;4983920;28;99123;-74
2023/09/30 09:21:14;;;;;;;14.77;3.53;;;;;;;21.84;54.88;102149.97;4988739;28;98860;-74
2023/09/30 09:23:42;;;;;;;12.05;2.88;;;;;;;22.08;54.33;102147.63;4980199;28;96967;-74
2023/09/30 09:26:10;;;;;;;14.55;3.28;;;;;;;22.49;52.81;102148.63;4984754;28;96980;-74
2023/09/30 09:28:38;;;;;;;12.13;2.92;;;;;;;22.09;53.93;102152.94;4981427;28;99953;-73
2023/09/30 09:31:22;;;;;;;13.35;2.92;;;;;;;22.75;52.21;102152.38;4981214;28;101640;-74
2023/09/30 09:33:49;;;;;;;10.27;3.05;;;;;;;22.85;52.00;102147.22;4989963;28;99875;-73
2023/09/30 09:36:16;;;;;;;19.73;3.08;;;;;;;22.29;52.25;102151.69;4988105;28;96822;-73
2023/09/30 09:38:53;;;;;;;15.98;2.83;;;;;;;22.86;51.13;102165.16;4979918;28;99010;-74
2023/09/30 09:41:20;;;;;;;16.45;3.13;;;;;;;22.88;50.52;102158.69;4982409;28;99772;-73
2023/09/30 09:43:49;;;;;;;16.63;3.72;;;;;;;22.92;50.97;102162.03;4985803;28;96829;-73
2023/09/30 09:46:18;;;;;;;10.60;2.95;;;;;;;23.18;50.15;102158.50;4986647;28;96798;-73
2023/09/30 09:48:47;;;;;;;12.98;2.85;;;;;;;23.41;49.20;102152.47;4976178;28;98756;-74
2023/09/30 09:51:14;;;;;;;13.32;2.35;;;;;;;23.32;49.38;102155.75;4984474;28;99842;-75
2023/09/30 09:53:43;;;;;;;13.95;2.78;;;;;;;22.62;50.28;102149.56;4979105;28;96914;-73
2023/09/30 09:56:11;;;;;;;15.65;3.25;;;;;;;23.04;49.95;102158.53;4985608;28;96962;-73
2023/09/30 09:58:41;;;;;;;11.88;2.60;;;;;;;23.36;49.15;102157.31;4981486;28;98247;-75
2023/09/30 10:01:09;;;;;;;15.05;3.00;;;;;;;23.06;49.10;102148.53;4974652;28;99036;-74
2023/09/30 10:03:36;;;;;;;13.82;2.97;;;;;;;23.60;48.61;102148.53;4983886;28;96802;-74
2023/09/30 10:06:06;;;;;;;10.52;2.70;;;;;;;23.48;48.26;102150.25;4979804;28;97203;-74
2023/09/30 10:08:37;;;;;;;15.13;3.03;;;;;;;23.38;48.42;102151.78;4980106;28;98901;-75
2023/09/30 10:11:04;;;;;;;18.42;3.45;;;;;;;23.18;48.74;102146.84;4977768;28;100913;-75
2023/09/30 10:14:00;;;;;;;11.50;3.30;;;;;;;23.83;46.67;102145.13;4978826;28;96729;-76
2023/09/30 10:16:50;;;;;;;10.75;2.58;;;;;;;23.79;45.76;102157.13;4985080;28;96859;-75
2023/09/30 10:19:18;;;;;;;8.93;2.28;;;;;;;23.63;45.37;102151.88;4982353;28;98609;-75
2023/09/30 10:22:24;;;;;;;15.10;2.40;;;;;;;23.29;45.51;102156.00;4981887;28;100528;-75
2023/09/30 10:24:52;;;;;;;18.15;3.40;;;;;;;23.36;45.87;102149.22;4980907;28;97234;-76
2023/09/30 10:27:37;;;;;;;14.73;2.50;;;;;;;22.94;46.66;102154.75;4978829;28;97295;-76
2023/09/30 10:30:16;;;;;;;12.85;2.50;;;;;;;23.05;46.71;102162.97;4980125;28;99034;-76
2023/09/30 10:33:11;;;;;;;11.65;2.83;;;;;;;23.56;45.38;102157.81;4980149;28;99029;-76
2023/09/30 10:35:47;;;;;;;11.35;2.40;;;;;;;24.00;44.36;102158.34;4987929;28;97172;-77
2023/09/30 10:38:43;;;;;;;13.95;2.67;;;;;;;24.15;43.47;102159.97;4988764;28;96703;-77
2023/09/30 10:41:11;;;;;;;12.77;3.40;;;;;;;24.18;43.21;102158.88;4980819;28;99340;-77
2023/09/30 10:43:39;;;;;;;13.30;3.25;;;;;;;23.90;43.51;102159.91;4976853;28;98525;-77
2023/09/30 10:46:34;;;;;;;12.95;2.75;;;;;;;23.28;44.21;102170.44;4981759;28;96888;-76
2023/09/30 10:49:17;;;;;;;12.05;2.63;;;;;;;23.26;45.05;102171.50;4980921;28;97512;-76
2023/09/30 10:51:43;;;;;;;9.60;2.90;;;;;;;23.13;45.27;102162.47;4983283;28;99271;-76
2023/09/30 10:54:14;;;;;;;10.50;3.00;;;;;;;23.37;45.39;102164.41;4985879;28;99543;-76
2023/09/30 10:56:43;;;;;;;13.02;2.78;;;;;;;23.51;44.39;102177.00;4980443;28;96909;-74
2023/09/30 10:59:10;;;;;;;9.95;2.63;;;;;;;23.65;42.97;102167.97;4978997;28;96907;-73
2023/09/30 11:01:37;;;;;;;7.57;1.73;;;;;;;23.52;43.01;102167.09;4979029;28;99397;-74
2023/09/30 11:04:05;;;;;;;7.80;2.15;;;;;;;23.16;43.11;102157.75;4980999;28;99448;-74
2023/09/30 11:06:33;;;;;;;13.75;2.78;;;;;;;23.07;43.86;102150.28;4981337;28;96804;-74
2023/09/30 11:09:02;;;;;;;12.75;2.50;;;;;;;23.35;42.95;102158.28;4975148;28;97173;-74
2023/09/30 11:11:43;;;;;;;13.45;2.58;;;;;;;23.59;43.56;102147.69;4981956;28;101019;-73
2023/09/30 11:14:22;;;;;;;13.15;2.60;;;;;;;23.77;42.66;102153.63;4974576;28;98166;-75
2023/09/30 11:16:51;;;;;;;11.32;2.50;;;;;;;23.77;42.77;102151.81;4975450;28;96677;-75
2023/09/30 11:19:20;;;;;;;13.93;2.25;;;;;;;23.83;42.73;102156.78;4984631;28;97561;-74
2023/09/30 11:21:48;;;;;;;13.45;2.35;;;;;;;23.58;43.00;102153.16;4988674;28;98926;-74
2023/09/30 11:24:16;;;;;;;12.32;2.50;;;;;;;23.76;42.82;102160.03;4980565;28;102218;-75